Time;durP1;ratioP1;P1;durP2;ratioP2;P2;SDS_P1;SDS_P2;PMS_P1;PMS_P2;Temp;Humidity;BMP_temperature;BMP_pressure;BME280_temperature;BME280_humidity;BME280_pressure;Samples;Min_cycle;Max_cycle;Signal;HPM_P1;HPM_P2
2023/03/07 00:02:22;;;;;;;12.60;7.47;;;;;;;4.49;100.00;99605.28;5073788;28;20119;-77
2023/03/07 00:04:47;;;;;;;13.07;7.15;;;;;;;4.57;100.00;99608.28;5077385;28;20119;-77
2023/03/07 00:07:13;;;;;;;13.18;7.35;;;;;;;4.54;100.00;99613.97;5074135;28;20111;-76
2023/03/07 00:09:39;;;;;;;12.07;6.72;;;;;;;4.51;100.00;99618.72;5069986;28;20035;-76
2023/03/07 00:12:05;;;;;;;11.50;6.72;;;;;;;4.57;100.00;99619.13;5065229;28;20043;-76
2023/03/07 00:14:31;;;;;;;12.52;7.10;;;;;;;4.62;100.00;99615.22;5074572;28;20094;-76
2023/03/07 00:16:57;;;;;;;12.57;7.28;;;;;;;4.56;100.00;99622.84;5023403;28;20486;-76
2023/03/07 00:19:22;;;;;;;11.93;7.22;;;;;;;4.51;100.00;99625.03;5073366;28;20353;-76
2023/03/07 00:21:48;;;;;;;10.75;6.80;;;;;;;4.42;100.00;99623.84;5064111;28;20462;-77
2023/03/07 00:24:13;;;;;;;12.07;6.82;;;;;;;4.44;100.00;99607.47;5059919;28;20081;-76
2023/03/07 00:26:38;;;;;;;7.15;4.13;;;;;;;4.32;100.00;99609.25;5075844;28;20040;-76
2023/03/07 00:29:06;;;;;;;10.05;5.88;;;;;;;4.31;100.00;99614.78;5038891;28;20400;-77
2023/03/07 00:31:32;;;;;;;10.88;5.60;;;;;;;4.24;100.00;99614.34;5071795;28;20547;-76
2023/03/07 00:33:58;;;;;;;10.07;5.00;;;;;;;4.19;100.00;99620.09;5053626;28;20072;-77
2023/03/07 00:36:23;;;;;;;7.60;4.68;;;;;;;4.21;100.00;99606.44;5057495;28;20482;-77
2023/03/07 00:38:50;;;;;;;5.88;4.13;;;;;;;4.12;100.00;99602.56;5092850;28;20036;-77
2023/03/07 00:41:20;;;;;;;6.65;3.45;;;;;;;4.05;100.00;99609.44;5086088;28;20144;-77
2023/03/07 00:43:46;;;;;;;7.93;2.78;;;;;;;3.94;100.00;99604.78;5070118;28;20035;-76
2023/03/07 00:46:13;;;;;;;3.25;2.33;;;;;;;3.90;100.00;99605.94;5090268;28;20035;-77
2023/03/07 00:48:39;;;;;;;2.97;2.00;;;;;;;3.90;100.00;99602.38;5088104;28;20037;-76
2023/03/07 00:51:07;;;;;;;2.22;1.75;;;;;;;3.85;100.00;99602.72;5066331;28;20039;-77
2023/03/07 00:53:33;;;;;;;2.65;1.83;;;;;;;3.83;100.00;99588.44;5086316;28;20122;-77
2023/03/07 00:56:01;;;;;;;2.72;2.17;;;;;;;3.80;100.00;99585.94;5073472;28;20032;-76
2023/03/07 00:58:29;;;;;;;2.97;1.90;;;;;;;3.77;100.00;99575.31;5072864;28;20024;-76
2023/03/07 01:00:54;;;;;;;1.60;1.13;;;;;;;3.72;100.00;99577.50;5098246;28;20067;-77
2023/03/07 01:03:21;;;;;;;3.25;1.50;;;;;;;3.88;100.00;99588.09;5065431;28;20047;-77
2023/03/07 01:05:46;;;;;;;3.55;1.80;;;;;;;3.78;100.00;99582.47;5090050;28;20409;-77
2023/03/07 01:08:12;;;;;;;2.42;1.10;;;;;;;3.78;100.00;99577.06;5073838;28;20032;-76
2023/03/07 01:10:38;;;;;;;2.03;1.15;;;;;;;3.76;100.00;99569.06;5109157;28;20429;-77
2023/03/07 01:13:04;;;;;;;8.02;1.98;;;;;;;3.85;100.00;99563.00;5084500;28;20556;-77
2023/03/07 01:15:30;;;;;;;2.45;1.38;;;;;;;3.84;100.00;99558.53;5109261;28;20517;-77
2023/03/07 01:17:56;;;;;;;2.22;1.48;;;;;;;3.84;100.00;99563.09;5079596;28;20237;-77
2023/03/07 01:20:21;;;;;;;4.32;1.45;;;;;;;3.90;100.00;99561.78;5093577;28;20031;-77
2023/03/07 01:22:47;;;;;;;2.65;1.52;;;;;;;3.90;100.00;99568.03;5084302;28;20525;-77
2023/03/07 01:25:12;;;;;;;3.38;1.77;;;;;;;3.89;100.00;99568.16;5089960;28;20540;-77
2023/03/07 01:27:38;;;;;;;4.00;1.92;;;;;;;3.85;100.00;99562.09;5079249;28;20492;-77
2023/03/07 01:30:06;;;;;;;2.80;1.30;;;;;;;3.84;100.00;99561.25;5083541;28;20027;-76
2023/03/07 01:32:31;;;;;;;4.18;1.33;;;;;;;3.92;100.00;99557.09;5114139;28;20062;-77
2023/03/07 01:34:57;;;;;;;4.13;2.35;;;;;;;3.91;100.00;99558.09;5070394;28;20415;-77
2023/03/07 01:37:22;;;;;;;4.05;1.85;;;;;;;3.87;100.00;99552.06;5094132;28;20039;-76
2023/03/07 01:39:52;;;;;;;3.22;2.13;;;;;;;3.93;100.00;99551.59;5091852;28;20031;-77
2023/03/07 01:42:18;;;;;;;3.88;1.92;;;;;;;3.91;100.00;99548.13;5109554;28;20082;-76
2023/03/07 01:45:07;;;;;;;3.08;2.08;;;;;;;3.89;100.00;99538.38;5093955;28;20034;-76
2023/03/07 01:47:33;;;;;;;3.38;1.70;;;;;;;3.90;100.00;99548.25;5081922;28;20100;-77
2023/03/07 01:50:03;;;;;;;3.35;2.40;;;;;;;3.93;100.00;99537.19;5080401;28;20491;-77
2023/03/07 01:52:59;;;;;;;3.92;2.67;;;;;;;3.96;100.00;99540.53;5117055;28;20385;-76
2023/03/07 01:55:30;;;;;;;3.25;1.90;;;;;;;3.96;100.00;99537.81;5091817;28;20046;-77
2023/03/07 01:58:02;;;;;;;3.90;2.65;;;;;;;3.93;100.00;99527.22;5112284;28;20036;-76
2023/03/07 02:00:28;;;;;;;5.30;3.03;;;;;;;3.92;100.00;99527.31;5095133;28;20039;-77
2023/03/07 02:03:09;;;;;;;5.63;3.08;;;;;;;4.00;100.00;99527.63;5098646;28;20043;-77
2023/03/07 02:05:39;;;;;;;5.38;3.63;;;;;;;3.96;100.00;99521.56;5107411;28;20044;-77
2023/03/07 02:08:09;;;;;;;5.25;2.85;;;;;;;3.99;100.00;99521.34;5070969;28;20024;-76
2023/03/07 02:10:35;;;;;;;5.07;3.03;;;;;;;3.96;100.00;99512.59;5098078;28;20393;-76
2023/03/07 02:13:04;;;;;;;5.88;3.63;;;;;;;3.97;100.00;99511.63;5061077;28;20047;-76
2023/03/07 02:15:32;;;;;;;4.80;3.10;;;;;;;3.97;100.00;99498.09;5109568;27;20036;-76
2023/03/07 02:17:58;;;;;;;4.70;3.10;;;;;;;3.95;100.00;99509.03;5111264;28;20112;-76
2023/03/07 02:20:39;;;;;;;4.47;3.08;;;;;;;3.95;100.00;99500.91;5076463;28;20032;-77
2023/03/07 02:23:12;;;;;;;5.70;3.35;;;;;;;3.92;100.00;99502.94;5065712;28;20038;-77
2023/03/07 02:25:37;;;;;;;;;;;;;;;3.95;100.00;99513.56;5084422;28;20036;-77
2023/03/07 02:28:04;;;;;;;8.50;4.22;;;;;;;3.92;100.00;99506.53;5109781;28;19922;-77
2023/03/07 02:30:30;;;;;;;5.63;2.92;;;;;;;3.89;100.00;99501.34;5080433;28;20122;-77
2023/03/07 02:32:57;;;;;;;5.57;2.95;;;;;;;3.86;100.00;99504.28;5092854;28;20042;-77
2023/03/07 02:35:25;;;;;;;7.10;4.28;;;;;;;3.83;100.00;99493.69;5076620;28;20050;-77
2023/03/07 02:37:56;;;;;;;9.32;4.65;;;;;;;3.89;100.00;99495.94;5093934;28;20032;-77
2023/03/07 02:40:28;;;;;;;7.40;4.50;;;;;;;3.87;100.00;99503.31;5110427;28;20496;-76
2023/03/07 02:42:57;;;;;;;9.33;4.70;;;;;;;3.84;100.00;99493.56;5112764;28;20032;-76
2023/03/07 02:45:23;;;;;;;7.88;4.95;;;;;;;3.94;100.00;99491.03;5097123;28;20498;-76
2023/03/07 02:47:48;;;;;;;10.27;5.35;;;;;;;3.98;100.00;99494.38;5098879;28;20120;-77
2023/03/07 02:50:15;;;;;;;9.73;5.32;;;;;;;3.94;100.00;99492.91;5093377;28;20032;-76
2023/03/07 02:52:40;;;;;;;10.10;5.07;;;;;;;3.99;100.00;99493.41;5095213;28;20146;-77
2023/03/07 02:55:07;;;;;;;8.77;4.47;;;;;;;3.90;100.00;99484.13;5107154;28;20126;-77
2023/03/07 02:57:33;;;;;;;8.55;4.07;;;;;;;3.89;100.00;99489.63;5110617;28;20086;-77
2023/03/07 02:59:58;;;;;;;8.77;4.40;;;;;;;3.84;100.00;99495.41;5074734;28;20039;-76
2023/03/07 03:02:24;;;;;;;9.32;4.70;;;;;;;3.80;100.00;99483.91;5090744;28;20047;-77
2023/03/07 03:04:50;;;;;;;8.65;4.32;;;;;;;3.90;100.00;99484.13;5093742;28;20039;-76
2023/03/07 03:07:15;;;;;;;8.65;4.13;;;;;;;3.85;100.00;99480.88;5059316;28;20050;-76
2023/03/07 03:09:41;;;;;;;6.28;3.53;;;;;;;3.82;100.00;99484.69;5093898;28;20487;-77
2023/03/07 03:12:07;;;;;;;9.15;4.63;;;;;;;3.86;100.00;99483.47;5074303;28;20035;-77
2023/03/07 03:14:32;;;;;;;7.20;3.67;;;;;;;3.90;100.00;99494.94;5064747;28;20033;-77
2023/03/07 03:16:57;;;;;;;6.28;3.55;;;;;;;3.80;100.00;99493.91;5072126;28;20044;-76
2023/03/07 03:19:23;;;;;;;7.40;4.72;;;;;;;3.89;100.00;99495.94;5072746;28;20505;-77
2023/03/07 03:21:49;;;;;;;9.77;3.83;;;;;;;3.77;100.00;99484.19;5070892;28;20062;-77
2023/03/07 03:24:15;;;;;;;5.72;3.50;;;;;;;3.84;100.00;99482.72;5087650;28;20046;-77
2023/03/07 03:26:40;;;;;;;8.68;3.72;;;;;;;3.85;100.00;99483.59;5043064;28;20028;-76
2023/03/07 03:29:06;;;;;;;9.50;4.53;;;;;;;3.90;100.00;99489.53;5073433;28;20181;-76
2023/03/07 03:31:33;;;;;;;6.80;3.63;;;;;;;3.79;100.00;99484.06;5080925;28;20483;-76
2023/03/07 03:33:59;;;;;;;8.35;4.00;;;;;;;3.89;100.00;99474.28;5068661;28;20032;-76
2023/03/07 03:36:26;;;;;;;7.57;3.67;;;;;;;3.85;100.00;99470.94;5071763;28;20085;-76
2023/03/07 03:38:53;;;;;;;9.85;5.07;;;;;;;3.92;100.00;99476.75;5055928;28;20248;-76
2023/03/07 03:41:18;;;;;;;12.27;4.80;;;;;;;3.89;100.00;99477.00;5049688;28;20067;-76
2023/03/07 03:43:44;;;;;;;7.90;4.80;;;;;;;3.87;100.00;99468.13;5093164;28;20060;-76
2023/03/07 03:46:09;;;;;;;6.45;3.78;;;;;;;3.76;100.00;99459.91;5063353;28;20047;-76
2023/03/07 03:48:35;;;;;;;8.82;4.72;;;;;;;3.86;100.00;99469.94;5093162;28;20046;-77
2023/03/07 03:51:04;;;;;;;11.70;5.15;;;;;;;3.93;100.00;99469.50;5092605;28;20050;-77
2023/03/07 03:53:31;;;;;;;11.85;5.38;;;;;;;3.87;100.00;99473.53;5089494;28;20035;-77
2023/03/07 03:56:08;;;;;;;10.07;5.07;;;;;;;3.92;100.00;99463.22;5094405;28;20106;-77
2023/03/07 03:58:33;;;;;;;11.05;5.43;;;;;;;3.90;100.00;99467.00;5057985;28;20032;-77
2023/03/07 04:01:04;;;;;;;10.65;5.38;;;;;;;3.84;100.00;99457.50;5065787;28;20040;-77
2023/03/07 04:03:34;;;;;;;12.68;6.45;;;;;;;3.91;100.00;99456.06;5070523;28;20108;-77
2023/03/07 04:06:02;;;;;;;11.95;5.80;;;;;;;3.92;100.00;99454.22;5092978;28;20535;-76
2023/03/07 04:08:27;;;;;;;13.30;6.07;;;;;;;3.87;100.00;99446.47;5074162;28;20212;-76
2023/03/07 04:10:53;;;;;;;13.48;6.70;;;;;;;3.89;100.00;99444.50;5042393;28;20050;-76
2023/03/07 04:13:18;;;;;;;13.18;6.55;;;;;;;3.88;100.00;99441.91;5084774;28;20055;-77
2023/03/07 04:15:43;;;;;;;12.98;6.82;;;;;;;3.83;100.00;99429.56;5055816;28;20044;-77
2023/03/07 04:18:09;;;;;;;12.18;6.32;;;;;;;3.90;100.00;99431.81;5071301;28;20051;-77
2023/03/07 04:20:34;;;;;;;13.57;6.50;;;;;;;3.78;100.00;99412.78;5075909;28;20047;-77
2023/03/07 04:23:00;;;;;;;13.63;6.68;;;;;;;3.79;100.00;99425.38;5092326;28;20047;-77
2023/03/07 04:25:25;;;;;;;15.73;6.03;;;;;;;3.79;100.00;99416.38;5038988;28;20514;-77
2023/03/07 04:27:50;;;;;;;12.57;5.78;;;;;;;3.79;100.00;99411.84;5055052;28;20036;-76
2023/03/07 04:30:16;;;;;;;12.80;5.93;;;;;;;3.73;100.00;99414.97;5055391;28;20052;-77
2023/03/07 04:32:41;;;;;;;14.65;5.70;;;;;;;3.71;100.00;99407.97;5048887;28;20399;-77
2023/03/07 04:35:07;;;;;;;14.30;5.93;;;;;;;3.82;100.00;99405.31;5074879;28;20050;-77
2023/03/07 04:37:33;;;;;;;16.60;5.95;;;;;;;3.85;100.00;99405.97;5041590;28;20395;-77
2023/03/07 04:39:58;;;;;;;13.98;6.15;;;;;;;3.80;100.00;99401.84;5092959;28;20085;-76
2023/03/07 04:42:24;;;;;;;12.65;6.03;;;;;;;3.84;100.00;99396.09;5066303;28;20094;-77
2023/03/07 04:44:52;;;;;;;19.98;6.82;;;;;;;3.87;100.00;99397.72;5069078;28;20090;-76
2023/03/07 04:47:17;;;;;;;13.18;6.68;;;;;;;3.84;100.00;99400.66;5057846;28;20032;-76
2023/03/07 04:49:42;;;;;;;15.98;6.95;;;;;;;3.84;100.00;99396.09;5056263;28;20067;-77
2023/03/07 04:52:08;;;;;;;14.02;6.68;;;;;;;3.82;100.00;99395.38;5085008;28;20044;-77
2023/03/07 04:54:33;;;;;;;18.98;7.15;;;;;;;3.84;100.00;99384.41;5092672;28;20063;-77
2023/03/07 04:56:59;;;;;;;16.75;7.45;;;;;;;3.83;100.00;99383.53;5069686;28;20056;-77
2023/03/07 04:59:24;;;;;;;18.70;8.05;;;;;;;3.77;100.00;99386.72;5069216;28;20043;-77
2023/03/07 05:01:50;;;;;;;19.42;7.75;;;;;;;3.79;100.00;99392.03;5068901;28;20052;-77
2023/03/07 05:04:15;;;;;;;21.17;8.60;;;;;;;3.68;100.00;99376.56;5060095;28;20060;-76
2023/03/07 05:06:40;;;;;;;19.88;8.38;;;;;;;3.79;100.00;99382.06;5077729;28;20075;-77
2023/03/07 05:09:06;;;;;;;19.83;8.65;;;;;;;3.78;100.00;99377.59;5073659;28;20123;-78
2023/03/07 05:11:31;;;;;;;18.83;8.38;;;;;;;3.86;100.00;99375.19;5072576;28;20038;-77
2023/03/07 05:13:57;;;;;;;20.85;9.20;;;;;;;3.83;100.00;99369.16;5089924;28;20127;-77
2023/03/07 05:16:27;;;;;;;20.33;8.65;;;;;;;3.86;100.00;99380.59;5075767;28;20452;-77
2023/03/07 05:18:52;;;;;;;22.35;8.68;;;;;;;3.83;100.00;99370.00;5093681;28;20032;-76
2023/03/07 05:21:17;;;;;;;25.17;9.07;;;;;;;3.85;100.00;99364.47;5076077;28;20089;-77
2023/03/07 05:23:43;;;;;;;24.65;9.10;;;;;;;3.83;100.00;99364.59;5067709;28;20059;-77
2023/03/07 05:26:08;;;;;;;29.95;9.95;;;;;;;3.87;100.00;99362.53;5075904;28;20064;-76
2023/03/07 05:28:34;;;;;;;19.85;8.30;;;;;;;3.86;100.00;99358.09;5060163;28;20115;-78
2023/03/07 05:30:59;;;;;;;20.85;9.10;;;;;;;3.89;100.00;99359.69;5096719;28;20047;-77
2023/03/07 05:33:25;;;;;;;21.75;8.32;;;;;;;3.88;100.00;99358.81;5091710;28;20032;-78
2023/03/07 05:35:50;;;;;;;17.60;7.82;;;;;;;3.83;100.00;99350.19;5073275;28;20455;-78
2023/03/07 05:38:15;;;;;;;22.08;8.05;;;;;;;3.81;100.00;99357.56;5087191;28;20407;-78
2023/03/07 05:40:41;;;;;;;22.92;8.82;;;;;;;3.81;100.00;99355.72;5096799;28;20036;-78
2023/03/07 05:43:07;;;;;;;23.40;9.55;;;;;;;3.84;100.00;99357.34;5076579;28;20372;-77
2023/03/07 05:45:32;;;;;;;24.75;8.85;;;;;;;3.87;100.00;99359.81;5063074;28;20054;-77
2023/03/07 05:47:58;;;;;;;17.83;8.38;;;;;;;3.84;100.00;99351.94;5084393;28;20527;-77
2023/03/07 05:50:23;;;;;;;24.17;9.82;;;;;;;3.81;100.00;99361.13;5082538;28;20036;-77
2023/03/07 05:52:51;;;;;;;21.05;8.55;;;;;;;3.76;100.00;99354.34;5095722;28;20028;-76
2023/03/07 05:55:17;;;;;;;22.52;9.30;;;;;;;3.79;100.00;99356.84;5077927;28;20063;-78
2023/03/07 05:57:42;;;;;;;16.92;8.07;;;;;;;3.83;100.00;99352.91;5072870;28;20043;-77
2023/03/07 06:00:10;;;;;;;18.35;7.85;;;;;;;3.79;100.00;99352.28;5055826;28;20167;-77
2023/03/07 06:02:35;;;;;;;15.40;7.20;;;;;;;3.82;100.00;99343.03;5113705;27;20097;-77
2023/03/07 06:05:04;;;;;;;17.33;7.30;;;;;;;3.77;100.00;99345.22;5100853;28;20474;-77
2023/03/07 06:07:29;;;;;;;22.65;8.13;;;;;;;3.79;100.00;99346.00;5098640;28;20043;-77
2023/03/07 06:09:55;;;;;;;18.05;8.05;;;;;;;3.72;100.00;99342.00;5118910;28;20478;-77
2023/03/07 06:12:20;;;;;;;15.98;7.65;;;;;;;3.71;100.00;99348.44;5113977;28;20554;-77
2023/03/07 06:14:45;;;;;;;20.20;7.85;;;;;;;3.70;100.00;99347.53;5099733;28;20048;-77
2023/03/07 06:17:11;;;;;;;19.63;8.23;;;;;;;3.65;100.00;99347.03;5081782;28;20079;-78
2023/03/07 06:19:36;;;;;;;24.98;8.10;;;;;;;3.64;100.00;99346.19;5115589;28;20088;-77
2023/03/07 06:22:02;;;;;;;23.25;8.38;;;;;;;3.64;100.00;99337.16;5096434;28;20043;-77
2023/03/07 06:24:27;;;;;;;23.55;8.80;;;;;;;3.65;100.00;99333.50;5096322;28;20023;-78
2023/03/07 06:26:52;;;;;;;23.55;8.15;;;;;;;3.70;100.00;99331.31;5097897;28;20042;-77
2023/03/07 06:29:18;;;;;;;26.80;10.07;;;;;;;3.68;100.00;99323.28;5097047;28;20028;-77
2023/03/07 06:31:43;;;;;;;23.42;9.43;;;;;;;3.72;100.00;99333.91;5085634;28;20062;-77
2023/03/07 06:34:09;;;;;;;26.30;9.63;;;;;;;3.68;100.00;99334.13;5093285;28;20134;-77
2023/03/07 06:36:34;;;;;;;29.45;9.45;;;;;;;3.74;100.00;99331.94;5112466;28;20392;-77
2023/03/07 06:39:00;;;;;;;26.48;9.45;;;;;;;3.74;100.00;99331.94;5077140;28;20477;-77
2023/03/07 06:41:26;;;;;;;29.40;10.07;;;;;;;3.70;100.00;99342.13;5072537;28;20379;-77
2023/03/07 06:43:52;;;;;;;25.35;9.77;;;;;;;3.65;100.00;99328.09;5080177;28;20036;-77
2023/03/07 06:46:19;;;;;;;29.75;10.43;;;;;;;3.72;100.00;99328.47;5095758;28;20027;-78
2023/03/07 06:48:44;;;;;;;32.58;10.25;;;;;;;3.74;100.00;99326.50;5096276;28;20115;-78
2023/03/07 06:51:10;;;;;;;27.88;10.07;;;;;;;3.69;100.00;99326.88;5094694;28;20114;-76
2023/03/07 06:53:35;;;;;;;38.78;11.57;;;;;;;3.66;100.00;99327.13;5111793;28;20678;-77
2023/03/07 06:56:04;;;;;;;34.05;10.77;;;;;;;3.58;100.00;99330.38;5095649;28;20031;-77
2023/03/07 06:58:30;;;;;;;25.58;9.60;;;;;;;3.49;100.00;99325.66;5107274;28;20031;-77
2023/03/07 07:00:55;;;;;;;24.48;9.40;;;;;;;3.45;100.00;99330.44;5081803;28;20052;-77
2023/03/07 07:03:21;;;;;;;22.40;9.57;;;;;;;3.49;100.00;99342.78;5056435;28;20065;-78
2023/03/07 07:05:46;;;;;;;23.85;9.63;;;;;;;3.54;100.00;99337.00;5091235;28;20036;-78
2023/03/07 07:08:12;;;;;;;27.35;10.07;;;;;;;3.49;100.00;99345.47;5090128;28;20036;-76
2023/03/07 07:10:37;;;;;;;23.50;9.20;;;;;;;3.47;100.00;99335.72;5091098;28;20453;-78
2023/03/07 07:13:03;;;;;;;21.25;8.57;;;;;;;3.41;100.00;99341.59;5024149;28;20570;-77
2023/03/07 07:15:30;;;;;;;21.17;8.27;;;;;;;3.41;100.00;99339.78;5067568;28;20518;-77
2023/03/07 07:17:55;;;;;;;20.20;8.65;;;;;;;3.44;100.00;99347.66;5058924;28;20081;-77
2023/03/07 07:20:21;;;;;;;21.08;8.23;;;;;;;3.40;100.00;99343.44;5087004;28;20036;-77
2023/03/07 07:22:46;;;;;;;23.58;7.80;;;;;;;3.37;100.00;99345.53;5090296;28;20028;-78
2023/03/07 07:25:12;;;;;;;18.17;7.70;;;;;;;3.29;100.00;99341.53;5076144;28;20036;-77
2023/03/07 07:27:37;;;;;;;21.85;6.85;;;;;;;3.25;100.00;99344.59;5075124;28;20028;-78
2023/03/07 07:30:04;;;;;;;19.00;6.13;;;;;;;3.18;100.00;99341.47;5091133;28;20039;-77
2023/03/07 07:32:29;;;;;;;13.25;5.38;;;;;;;3.12;100.00;99353.59;5048512;28;20383;-77
2023/03/07 07:34:55;;;;;;;13.55;5.78;;;;;;;3.07;100.00;99346.78;5040187;28;20028;-77
2023/03/07 07:37:20;;;;;;;11.75;5.10;;;;;;;2.93;100.00;99335.09;5057610;28;20040;-77
2023/03/07 07:39:48;;;;;;;10.55;4.32;;;;;;;2.92;100.00;99341.50;5073088;28;20475;-76
2023/03/07 07:42:13;;;;;;;9.80;4.28;;;;;;;2.96;100.00;99362.91;5090191;28;20040;-77
2023/03/07 07:44:38;;;;;;;8.35;3.85;;;;;;;2.79;100.00;99353.28;5075967;28;20039;-78
2023/03/07 07:47:04;;;;;;;9.82;3.72;;;;;;;2.67;100.00;99355.03;5048539;28;20044;-78
2023/03/07 07:49:29;;;;;;;10.00;3.65;;;;;;;2.72;100.00;99361.88;5059072;28;20043;-77
2023/03/07 07:51:55;;;;;;;12.07;5.15;;;;;;;2.57;100.00;99358.41;5065681;28;20037;-76
2023/03/07 07:54:20;;;;;;;10.20;4.20;;;;;;;2.55;100.00;99364.88;5085744;28;20127;-77
2023/03/07 07:56:46;;;;;;;12.48;4.93;;;;;;;2.54;100.00;99373.94;5072233;28;20036;-76
2023/03/07 07:59:12;;;;;;;8.68;4.32;;;;;;;2.44;100.00;99376.41;5074353;28;20032;-76
2023/03/07 08:01:38;;;;;;;9.55;4.32;;;;;;;2.40;100.00;99380.31;5054881;28;20049;-76
2023/03/07 08:04:04;;;;;;;11.98;4.72;;;;;;;2.38;100.00;99379.56;5061543;28;20120;-75
2023/03/07 08:06:30;;;;;;;16.63;5.03;;;;;;;2.28;100.00;99402.75;5082027;28;20093;-76
2023/03/07 08:08:55;;;;;;;14.80;4.90;;;;;;;2.22;100.00;99404.06;5055754;28;20069;-77
2023/03/07 08:11:22;;;;;;;12.02;5.00;;;;;;;2.20;100.00;99403.31;5071944;28;20036;-77
2023/03/07 08:13:48;;;;;;;13.00;5.50;;;;;;;1.98;100.00;99415.56;5074330;28;20414;-78
2023/03/07 08:16:22;;;;;;;14.95;6.20;;;;;;;2.09;100.00;99416.66;5055636;28;20051;-78
2023/03/07 08:18:57;;;;;;;15.50;6.45;;;;;;;1.95;100.00;99423.84;5055957;28;20505;-78
2023/03/07 08:21:26;;;;;;;15.13;6.38;;;;;;;1.90;100.00;99431.38;5057946;28;20037;-77
2023/03/07 08:23:53;;;;;;;18.50;6.07;;;;;;;1.90;100.00;99417.00;5073346;28;20035;-76
2023/03/07 08:26:22;;;;;;;17.52;6.07;;;;;;;1.79;100.00;99398.84;5058822;28;20066;-80
2023/03/07 08:28:47;;;;;;;18.23;7.60;;;;;;;1.73;100.00;99412.75;5023316;28;20047;-79
2023/03/07 08:31:25;;;;;;;18.58;6.32;;;;;;;1.73;100.00;99420.84;5067424;28;20044;-76
2023/03/07 08:33:51;;;;;;;18.38;6.97;;;;;;;1.70;100.00;99415.66;5093472;28;20028;-76
2023/03/07 08:36:17;;;;;;;22.35;7.57;;;;;;;1.74;100.00;99430.66;5073967;28;20039;-77
2023/03/07 08:38:42;;;;;;;17.70;7.43;;;;;;;1.69;100.00;99428.28;5057517;28;20032;-77
2023/03/07 08:41:08;;;;;;;19.15;6.55;;;;;;;1.55;100.00;99426.47;5075395;28;20030;-76
2023/03/07 08:43:36;;;;;;;23.25;7.65;;;;;;;1.54;100.00;99430.16;5074524;28;20402;-77
2023/03/07 08:46:05;;;;;;;21.38;7.78;;;;;;;1.60;100.00;99439.66;5053547;28;20102;-76
2023/03/07 08:48:30;;;;;;;21.20;7.75;;;;;;;1.54;100.00;99440.03;5049194;28;20036;-76
2023/03/07 08:50:56;;;;;;;22.75;7.80;;;;;;;1.43;100.00;99444.31;5093323;28;20431;-76
2023/03/07 08:53:22;;;;;;;25.90;9.27;;;;;;;1.58;100.00;99442.44;5099779;28;20032;-76
2023/03/07 08:55:48;;;;;;;26.90;8.35;;;;;;;1.58;100.00;99447.00;5080020;28;20119;-76
2023/03/07 08:58:13;;;;;;;22.90;8.70;;;;;;;1.57;100.00;99447.94;5075642;28;20472;-76
2023/03/07 09:00:39;;;;;;;22.73;7.70;;;;;;;1.63;100.00;99439.47;5061603;28;20060;-76
2023/03/07 09:03:05;;;;;;;27.02;8.88;;;;;;;1.71;100.00;99436.28;5079499;28;20441;-76
2023/03/07 09:05:31;;;;;;;24.92;8.57;;;;;;;1.74;100.00;99438.75;5077697;28;20082;-76
2023/03/07 09:07:57;;;;;;;30.52;8.48;;;;;;;1.69;100.00;99438.19;5081213;28;20040;-76
2023/03/07 09:10:23;;;;;;;24.33;8.98;;;;;;;1.67;100.00;99446.38;5081620;28;20044;-76
2023/03/07 09:12:54;;;;;;;27.98;8.27;;;;;;;1.69;100.00;99435.47;5099678;28;20032;-76
2023/03/07 09:15:22;;;;;;;21.55;8.40;;;;;;;1.80;100.00;99441.94;5097974;28;20043;-76
2023/03/07 09:17:47;;;;;;;22.80;8.90;;;;;;;1.92;100.00;99445.66;5081211;28;20036;-77
2023/03/07 09:20:15;;;;;;;21.33;8.35;;;;;;;1.90;100.00;99439.47;5062453;28;20039;-77
2023/03/07 09:22:40;;;;;;;23.30;9.10;;;;;;;1.82;100.00;99439.09;5079964;28;20028;-76
2023/03/07 09:25:06;;;;;;;25.02;8.55;;;;;;;1.68;100.00;99452.66;5098287;28;20605;-76
2023/03/07 09:27:31;;;;;;;22.95;9.13;;;;;;;1.62;100.00;99449.41;5081619;28;20064;-76
2023/03/07 09:29:57;;;;;;;30.60;9.88;;;;;;;1.70;100.00;99448.88;5099847;28;20509;-76
2023/03/07 09:32:22;;;;;;;24.05;10.07;;;;;;;1.65;100.00;99456.41;5081637;28;20391;-76
2023/03/07 09:34:48;;;;;;;23.85;9.25;;;;;;;1.70;100.00;99459.66;5077950;28;20036;-76
2023/03/07 09:37:13;;;;;;;24.60;8.38;;;;;;;1.64;100.00;99450.16;5063734;28;20126;-76
2023/03/07 09:39:39;;;;;;;26.25;9.38;;;;;;;1.81;100.00;99453.59;5099344;28;20040;-77
2023/03/07 09:42:14;;;;;;;21.90;8.82;;;;;;;1.81;100.00;99453.59;5081203;28;20379;-76
2023/03/07 09:45:02;;;;;;;22.98;7.97;;;;;;;1.69;100.00;99457.97;5097466;28;20398;-77
2023/03/07 09:47:34;;;;;;;25.27;9.48;;;;;;;1.76;100.00;99464.66;5089761;28;20487;-76
2023/03/07 09:50:02;;;;;;;26.17;9.57;;;;;;;1.64;100.00;99458.25;5081467;28;20042;-76
2023/03/07 09:52:34;;;;;;;24.15;9.40;;;;;;;1.59;100.00;99465.78;5081306;28;20036;-76
2023/03/07 09:55:02;;;;;;;22.38;9.18;;;;;;;1.55;100.00;99469.63;5098481;28;20038;-75
2023/03/07 09:57:34;;;;;;;25.35;9.85;;;;;;;1.54;100.00;99470.59;5098523;28;20032;-76
2023/03/07 10:00:24;;;;;;;25.93;9.77;;;;;;;1.46;100.00;99462.13;5098961;28;20056;-75
2023/03/07 10:03:01;;;;;;;30.27;10.90;;;;;;;1.45;100.00;99455.00;5063457;28;20040;-76
2023/03/07 10:05:37;;;;;;;32.28;10.95;;;;;;;1.41;100.00;99457.03;5075753;28;20191;-77
2023/03/07 10:08:04;;;;;;;31.08;11.23;;;;;;;1.46;100.00;99460.31;5078040;28;20020;-76
2023/03/07 10:10:40;;;;;;;29.40;12.27;;;;;;;1.48;100.00;99462.91;5096200;28;20529;-76
2023/03/07 10:13:30;;;;;;;29.15;11.25;;;;;;;1.49;100.00;99461.06;5078249;28;20478;-76
2023/03/07 10:16:03;;;;;;;28.52;11.48;;;;;;;1.44;100.00;99469.44;5074423;28;20036;-76
2023/03/07 10:18:55;;;;;;;38.53;12.00;;;;;;;1.43;100.00;99467.72;5095895;28;20461;-77
2023/03/07 10:21:39;;;;;;;28.65;10.95;;;;;;;1.47;100.00;99471.94;5077563;28;20424;-76
2023/03/07 10:24:07;;;;;;;30.52;12.07;;;;;;;1.55;100.00;99469.63;5094204;28;20071;-75
2023/03/07 10:26:46;;;;;;;22.17;10.23;;;;;;;1.42;100.00;99465.97;5060618;28;20035;-76
2023/03/07 10:29:25;;;;;;;35.72;12.52;;;;;;;1.54;100.00;99473.31;5077519;28;20479;-76
2023/03/07 10:31:55;;;;;;;32.53;12.23;;;;;;;1.43;100.00;99465.03;5094734;28;20040;-76
2023/03/07 10:34:26;;;;;;;33.70;11.55;;;;;;;1.51;100.00;99465.41;5077826;28;20036;-78
2023/03/07 10:36:59;;;;;;;33.30;12.57;;;;;;;1.41;100.00;99464.25;5067321;28;20055;-77
2023/03/07 10:39:40;;;;;;;39.35;13.23;;;;;;;1.47;100.00;99463.84;5075513;28;20025;-76
2023/03/07 10:42:10;;;;;;;32.67;11.93;;;;;;;1.36;100.00;99463.66;5062229;28;20035;-77
2023/03/07 10:44:38;;;;;;;42.85;15.02;;;;;;;1.24;100.00;99474.25;5094954;28;20035;-76
2023/03/07 10:47:04;;;;;;;41.28;13.75;;;;;;;1.35;100.00;99475.44;5095015;28;20379;-78
2023/03/07 10:49:49;;;;;;;33.60;11.90;;;;;;;1.21;100.00;99470.91;5095698;28;20035;-77
2023/03/07 10:52:27;;;;;;;28.58;12.35;;;;;;;1.20;100.00;99471.88;5075531;28;20044;-76
2023/03/07 10:54:53;;;;;;;37.70;12.77;;;;;;;1.33;100.00;99469.25;5076983;28;20031;-75
2023/03/07 10:57:26;;;;;;;35.65;13.38;;;;;;;1.41;100.00;99465.13;5056767;28;20066;-76
2023/03/07 10:59:52;;;;;;;32.75;12.60;;;;;;;1.38;100.00;99475.25;5075967;28;20068;-76
2023/03/07 11:02:36;;;;;;;30.52;12.05;;;;;;;1.32;100.00;99471.09;5107851;27;20074;-76
2023/03/07 11:05:16;;;;;;;33.00;12.45;;;;;;;1.38;100.00;99476.09;5082606;28;20046;-76
2023/03/07 11:07:42;;;;;;;34.20;12.82;;;;;;;1.26;100.00;99471.47;5076680;28;20062;-76
2023/03/07 11:10:35;;;;;;;35.88;13.77;;;;;;;1.45;100.00;99476.56;5103583;28;20110;-77
2023/03/07 11:13:21;;;;;;;29.55;11.05;;;;;;;1.38;100.00;99470.72;5081396;28;20047;-78
2023/03/07 11:15:47;;;;;;;32.35;13.02;;;;;;;1.37;100.00;99473.50;5084198;28;20031;-77
2023/03/07 11:18:40;;;;;;;30.50;11.70;;;;;;;1.35;100.00;99470.03;5071260;28;20065;-77
2023/03/07 11:21:30;;;;;;;28.15;11.45;;;;;;;1.49;100.00;99469.16;5077903;28;20142;-77
2023/03/07 11:24:05;;;;;;;31.38;11.05;;;;;;;1.53;100.00;99468.88;5113215;28;20038;-77
2023/03/07 11:26:39;;;;;;;27.90;10.80;;;;;;;1.61;100.00;99463.84;5079441;28;20372;-77
2023/03/07 11:29:07;;;;;;;26.13;10.45;;;;;;;1.56;100.00;99460.56;5096596;28;20035;-77
2023/03/07 11:32:21;;;;;;;26.08;10.07;;;;;;;1.62;100.00;99462.00;5079571;28;20165;-77